Main page
METAR-TAF:

METAR-TAF

Airports :

Caen – Carpiquet Airport

Caen, France

latitude: 49-11N, longitude: 000-27W, elevation: 78 m

Current weather observation

The report was made 41 minutes ago, at 22:00 UTC
Wind 8 kt from the West
Temperature 2°C
Humidity 87%
Pressure 1026 hPa
Visibility 10 km or more
no clouds below 1500 m and no cumulonimbus

METAR: LFRK 112200Z AUTO 27008KT CAVOK 02/M00 Q1026

Time: 00:41 (22:41 UTC)

Forecast

The report was made 8 hours and 41 minutes ago, at 14:00 UTC
Forecast valid from 11 at 15 UTC to 11 at 24 UTC
Wind 10 kt from the North
Visibility 10 km or more
Scattered clouds at a height of 4000 ft
Becoming
from 11 at 19 UTC to 11 at 21 UTC
Wind 5 kt from variable directions

TAF: LFRK 111400Z 1115/1124 36010KT 9999 SCT040 BECMG 1119/1121 VRB05KT

Weather observations and forecasts of more than 4000 airports (METAR and TAF reports).

The available stations are represented by yellow and red dots on the map.

Hover mouse over dot to see the name of the station.

Then click to see weather observations and forecasts.

To change the map : click on the green buttons with a black cross to zoom in, on the green button with a dash to zoom out, or on the green arrows for adjacent maps.


METAR-TAF: